sensor_id;sensor_type;location;lat;lon;timestamp;pressure;altitude;pressure_sealevel;temperature;humidity
20019;BME280;10170;42.502;26.526;2022-11-25T00:01:30;99242.41;;;8.59;100.00
20019;BME280;10170;42.502;26.526;2022-11-25T00:03:58;99259.13;;;8.66;100.00
20019;BME280;10170;42.502;26.526;2022-11-25T00:06:27;99258.50;;;8.64;100.00
20019;BME280;10170;42.502;26.526;2022-11-25T00:09:06;99264.81;;;8.63;100.00
20019;BME280;10170;42.502;26.526;2022-11-25T00:11:34;99264.63;;;8.71;100.00
20019;BME280;10170;42.502;26.526;2022-11-25T00:14:02;99261.16;;;8.77;100.00
20019;BME280;10170;42.502;26.526;2022-11-25T00:16:28;99265.84;;;8.68;100.00
20019;BME280;10170;42.502;26.526;2022-11-25T00:18:56;99260.97;;;8.59;100.00
20019;BME280;10170;42.502;26.526;2022-11-25T00:21:32;99259.72;;;8.61;100.00
20019;BME280;10170;42.502;26.526;2022-11-25T00:24:04;99274.00;;;8.67;100.00
20019;BME280;10170;42.502;26.526;2022-11-25T00:26:33;99274.41;;;8.64;100.00
20019;BME280;10170;42.502;26.526;2022-11-25T00:29:03;99271.38;;;8.80;100.00
20019;BME280;10170;42.502;26.526;2022-11-25T00:31:32;99279.50;;;8.72;100.00
20019;BME280;10170;42.502;26.526;2022-11-25T00:33:59;99275.63;;;8.74;100.00
20019;BME280;10170;42.502;26.526;2022-11-25T00:36:31;99276.88;;;8.85;100.00
20019;BME280;10170;42.502;26.526;2022-11-25T00:39:00;99257.69;;;8.76;100.00
20019;BME280;10170;42.502;26.526;2022-11-25T00:41:28;99273.56;;;9.09;100.00
20019;BME280;10170;42.502;26.526;2022-11-25T00:44:15;99274.81;;;8.87;100.00
20019;BME280;10170;42.502;26.526;2022-11-25T00:47:37;99275.63;;;8.81;100.00
20019;BME280;10170;42.502;26.526;2022-11-25T00:49:56;99277.84;;;8.64;100.00
20019;BME280;10170;42.502;26.526;2022-11-25T00:52:25;99277.28;;;8.82;100.00
20019;BME280;10170;42.502;26.526;2022-11-25T00:54:52;99276.22;;;8.70;100.00
20019;BME280;10170;42.502;26.526;2022-11-25T00:57:21;99261.13;;;8.50;100.00
20019;BME280;10170;42.502;26.526;2022-11-25T00:59:48;99289.88;;;8.73;100.00
20019;BME280;10170;42.502;26.526;2022-11-25T01:02:17;99275.22;;;8.84;100.00
20019;BME280;10170;42.502;26.526;2022-11-25T01:04:45;99276.44;;;8.81;100.00
20019;BME280;10170;42.502;26.526;2022-11-25T01:07:12;99266.47;;;8.83;100.00
20019;BME280;10170;42.502;26.526;2022-11-25T01:09:40;99256.06;;;8.69;100.00
20019;BME280;10170;42.502;26.526;2022-11-25T01:12:07;99275.81;;;8.86;100.00
20019;BME280;10170;42.502;26.526;2022-11-25T01:14:34;99275.22;;;8.97;100.00
20019;BME280;10170;42.502;26.526;2022-11-25T01:17:01;99276.66;;;9.12;100.00
20019;BME280;10170;42.502;26.526;2022-11-25T01:19:28;99276.66;;;8.99;100.00
20019;BME280;10170;42.502;26.526;2022-11-25T01:21:55;99269.28;;;9.27;100.00
20019;BME280;10170;42.502;26.526;2022-11-25T01:24:22;99247.69;;;9.04;100.00
20019;BME280;10170;42.502;26.526;2022-11-25T01:26:58;99256.88;;;8.95;100.00
20019;BME280;10170;42.502;26.526;2022-11-25T01:29:24;99272.56;;;8.97;100.00
20019;BME280;10170;42.502;26.526;2022-11-25T01:31:54;99267.06;;;9.05;100.00
20019;BME280;10170;42.502;26.526;2022-11-25T01:34:23;99272.75;;;9.02;100.00
20019;BME280;10170;42.502;26.526;2022-11-25T01:36:51;99262.78;;;9.04;100.00
20019;BME280;10170;42.502;26.526;2022-11-25T01:39:20;99266.47;;;8.90;100.00
20019;BME280;10170;42.502;26.526;2022-11-25T01:41:53;99270.34;;;8.87;100.00
20019;BME280;10170;42.502;26.526;2022-11-25T01:44:23;99273.59;;;8.83;100.00
20019;BME280;10170;42.502;26.526;2022-11-25T01:49:31;99276.44;;;9.07;100.00
20019;BME280;10170;42.502;26.526;2022-11-25T01:54:35;99280.13;;;8.67;100.00
20019;BME280;10170;42.502;26.526;2022-11-25T01:57:23;99286.25;;;8.74;100.00
20019;BME280;10170;42.502;26.526;2022-11-25T01:59:52;99282.97;;;8.72;100.00
20019;BME280;10170;42.502;26.526;2022-11-25T02:02:21;99284.00;;;8.71;100.00
20019;BME280;10170;42.502;26.526;2022-11-25T02:04:48;99281.94;;;8.93;100.00
20019;BME280;10170;42.502;26.526;2022-11-25T02:07:25;99296.03;;;8.87;100.00
20019;BME280;10170;42.502;26.526;2022-11-25T02:09:54;99266.28;;;8.78;100.00
20019;BME280;10170;42.502;26.526;2022-11-25T02:12:21;99289.69;;;9.20;100.00
20019;BME280;10170;42.502;26.526;2022-11-25T02:14:49;99282.53;;;9.34;100.00
20019;BME280;10170;42.502;26.526;2022-11-25T02:17:17;99290.94;;;9.05;100.00
20019;BME280;10170;42.502;26.526;2022-11-25T02:22:33;99304.59;;;8.89;100.00
20019;BME280;10170;42.502;26.526;2022-11-25T02:25:19;99295.63;;;8.83;100.00
20019;BME280;10170;42.502;26.526;2022-11-25T02:27:49;99304.19;;;8.92;100.00
20019;BME280;10170;42.502;26.526;2022-11-25T02:30:17;99307.03;;;8.84;100.00
20019;BME280;10170;42.502;26.526;2022-11-25T02:32:45;99301.31;;;8.80;100.00
20019;BME280;10170;42.502;26.526;2022-11-25T02:35:34;99308.69;;;8.78;100.00
20019;BME280;10170;42.502;26.526;2022-11-25T02:40:48;99305.81;;;8.93;100.00
20019;BME280;10170;42.502;26.526;2022-11-25T02:43:15;99312.97;;;8.99;100.00
20019;BME280;10170;42.502;26.526;2022-11-25T02:46:07;99312.34;;;8.97;100.00
20019;BME280;10170;42.502;26.526;2022-11-25T02:48:36;99311.53;;;9.03;100.00
20019;BME280;10170;42.502;26.526;2022-11-25T02:51:26;99312.97;;;8.99;100.00
20019;BME280;10170;42.502;26.526;2022-11-25T02:53:54;99319.28;;;9.04;100.00
20019;BME280;10170;42.502;26.526;2022-11-25T02:56:25;99320.09;;;9.05;100.00
20019;BME280;10170;42.502;26.526;2022-11-25T02:58:52;99320.72;;;9.07;100.00
20019;BME280;10170;42.502;26.526;2022-11-25T03:01:19;99319.09;;;8.99;100.00
20019;BME280;10170;42.502;26.526;2022-11-25T03:03:46;99323.97;;;9.09;100.00
20019;BME280;10170;42.502;26.526;2022-11-25T03:06:13;99317.66;;;9.10;100.00
20019;BME280;10170;42.502;26.526;2022-11-25T03:08:40;99334.59;;;9.15;100.00
20019;BME280;10170;42.502;26.526;2022-11-25T03:11:07;99323.16;;;9.15;100.00
20019;BME280;10170;42.502;26.526;2022-11-25T03:13:34;99304.00;;;9.00;100.00
20019;BME280;10170;42.502;26.526;2022-11-25T03:16:00;99318.88;;;9.14;100.00
20019;BME280;10170;42.502;26.526;2022-11-25T03:18:27;99320.50;;;9.02;100.00
20019;BME280;10170;42.502;26.526;2022-11-25T03:20:55;99330.72;;;9.11;100.00
20019;BME280;10170;42.502;26.526;2022-11-25T03:23:22;99332.34;;;9.19;100.00
20019;BME280;10170;42.502;26.526;2022-11-25T03:25:49;99319.69;;;9.08;100.00
20019;BME280;10170;42.502;26.526;2022-11-25T03:28:16;99327.84;;;9.13;100.00
20019;BME280;10170;42.502;26.526;2022-11-25T03:30:42;99334.00;;;9.07;100.00
20019;BME280;10170;42.502;26.526;2022-11-25T03:33:09;99344.19;;;9.10;100.00
20019;BME280;10170;42.502;26.526;2022-11-25T03:35:36;99333.97;;;8.87;100.00
20019;BME280;10170;42.502;26.526;2022-11-25T03:38:02;99344.16;;;8.90;100.00
20019;BME280;10170;42.502;26.526;2022-11-25T03:40:29;99347.63;;;8.78;100.00
20019;BME280;10170;42.502;26.526;2022-11-25T03:42:56;99343.56;;;8.82;100.00
20019;BME280;10170;42.502;26.526;2022-11-25T03:45:23;99350.88;;;8.86;100.00
20019;BME280;10170;42.502;26.526;2022-11-25T03:47:49;99348.63;;;8.90;100.00
20019;BME280;10170;42.502;26.526;2022-11-25T03:50:16;99351.09;;;8.78;100.00
20019;BME280;10170;42.502;26.526;2022-11-25T03:52:43;99351.88;;;8.79;100.00
20019;BME280;10170;42.502;26.526;2022-11-25T03:55:10;99346.34;;;8.61;100.00
20019;BME280;10170;42.502;26.526;2022-11-25T03:57:38;99344.94;;;8.58;100.00
20019;BME280;10170;42.502;26.526;2022-11-25T04:00:06;99350.84;;;8.67;100.00
20019;BME280;10170;42.502;26.526;2022-11-25T04:02:33;99351.22;;;8.57;100.00
20019;BME280;10170;42.502;26.526;2022-11-25T04:05:00;99356.16;;;8.67;100.00
20019;BME280;10170;42.502;26.526;2022-11-25T04:07:28;99351.09;;;8.78;100.00
20019;BME280;10170;42.502;26.526;2022-11-25T04:09:55;99361.28;;;8.81;100.00
20019;BME280;10170;42.502;26.526;2022-11-25T04:12:22;99362.72;;;8.90;100.00
20019;BME280;10170;42.502;26.526;2022-11-25T04:15:07;99356.56;;;8.70;100.00
20019;BME280;10170;42.502;26.526;2022-11-25T04:17:34;99372.28;;;8.78;100.00
20019;BME280;10170;42.502;26.526;2022-11-25T04:20:01;99379.53;;;8.50;100.00
20019;BME280;10170;42.502;26.526;2022-11-25T04:22:27;99349.72;;;8.28;100.00
20019;BME280;10170;42.502;26.526;2022-11-25T04:24:54;99368.94;;;8.50;100.00
20019;BME280;10170;42.502;26.526;2022-11-25T04:27:21;99380.81;;;8.67;100.00
20019;BME280;10170;42.502;26.526;2022-11-25T04:29:47;99372.47;;;8.64;100.00
20019;BME280;10170;42.502;26.526;2022-11-25T04:32:14;99382.22;;;8.57;100.00
20019;BME280;10170;42.502;26.526;2022-11-25T04:34:41;99372.41;;;8.50;100.00
20019;BME280;10170;42.502;26.526;2022-11-25T04:37:08;99381.81;;;8.53;100.00
20019;BME280;10170;42.502;26.526;2022-11-25T04:39:35;99377.28;;;8.40;100.00
20019;BME280;10170;42.502;26.526;2022-11-25T04:42:01;99384.91;;;8.22;100.00
20019;BME280;10170;42.502;26.526;2022-11-25T04:45:09;99377.75;;;8.16;100.00
20019;BME280;10170;42.502;26.526;2022-11-25T04:47:49;99399.81;;;8.30;100.00
20019;BME280;10170;42.502;26.526;2022-11-25T04:50:19;99396.19;;;8.37;100.00
20019;BME280;10170;42.502;26.526;2022-11-25T04:52:46;99372.34;;;8.24;100.00
20019;BME280;10170;42.502;26.526;2022-11-25T04:55:13;99404.78;;;8.39;100.00
20019;BME280;10170;42.502;26.526;2022-11-25T04:57:39;99393.97;;;8.41;100.00
20019;BME280;10170;42.502;26.526;2022-11-25T05:00:07;99400.09;;;8.41;100.00
20019;BME280;10170;42.502;26.526;2022-11-25T05:02:34;99410.91;;;8.46;100.00
20019;BME280;10170;42.502;26.526;2022-11-25T05:05:02;99401.53;;;8.44;100.00
20019;BME280;10170;42.502;26.526;2022-11-25T05:07:29;99406.66;;;8.45;100.00
20019;BME280;10170;42.502;26.526;2022-11-25T05:09:56;99385.66;;;8.57;100.00
20019;BME280;10170;42.502;26.526;2022-11-25T05:12:26;99388.72;;;8.54;100.00
20019;BME280;10170;42.502;26.526;2022-11-25T05:14:53;99416.78;;;9.09;100.00
20019;BME280;10170;42.502;26.526;2022-11-25T05:17:22;99414.75;;;9.11;100.00
20019;BME280;10170;42.502;26.526;2022-11-25T05:19:49;99414.03;;;8.70;100.00
20019;BME280;10170;42.502;26.526;2022-11-25T05:22:19;99416.69;;;8.70;100.00
20019;BME280;10170;42.502;26.526;2022-11-25T05:24:46;99421.97;;;8.57;100.00
20019;BME280;10170;42.502;26.526;2022-11-25T05:27:13;99426.44;;;8.49;100.00
20019;BME280;10170;42.502;26.526;2022-11-25T05:29:40;99427.78;;;8.39;100.00
20019;BME280;10170;42.502;26.526;2022-11-25T05:32:07;99445.19;;;8.55;100.00
20019;BME280;10170;42.502;26.526;2022-11-25T05:34:34;99441.16;;;8.59;100.00
20019;BME280;10170;42.502;26.526;2022-11-25T05:37:01;99424.00;;;8.55;100.00
20019;BME280;10170;42.502;26.526;2022-11-25T05:39:28;99450.09;;;8.58;100.00
20019;BME280;10170;42.502;26.526;2022-11-25T05:41:57;99446.09;;;8.75;100.00
20019;BME280;10170;42.502;26.526;2022-11-25T05:44:24;99451.25;;;9.02;100.00
20019;BME280;10170;42.502;26.526;2022-11-25T05:46:51;99434.88;;;8.79;100.00
20019;BME280;10170;42.502;26.526;2022-11-25T05:49:19;99461.19;;;8.74;100.00
20019;BME280;10170;42.502;26.526;2022-11-25T05:51:46;99463.69;;;8.89;100.00
20019;BME280;10170;42.502;26.526;2022-11-25T05:54:13;99454.22;;;8.73;100.00
20019;BME280;10170;42.502;26.526;2022-11-25T05:56:40;99449.19;;;8.85;100.00
20019;BME280;10170;42.502;26.526;2022-11-25T05:59:06;99476.78;;;9.16;100.00
20019;BME280;10170;42.502;26.526;2022-11-25T06:01:33;99487.63;;;9.28;100.00
20019;BME280;10170;42.502;26.526;2022-11-25T06:04:01;99487.03;;;9.52;100.00
20019;BME280;10170;42.502;26.526;2022-11-25T06:06:29;99479.31;;;9.57;100.00
20019;BME280;10170;42.502;26.526;2022-11-25T06:08:56;99487.88;;;9.59;100.00
20019;BME280;10170;42.502;26.526;2022-11-25T06:11:22;99502.59;;;10.14;100.00
20019;BME280;10170;42.502;26.526;2022-11-25T06:13:51;99497.66;;;10.04;100.00
20019;BME280;10170;42.502;26.526;2022-11-25T06:16:19;99493.41;;;9.90;100.00
20019;BME280;10170;42.502;26.526;2022-11-25T06:18:47;99508.53;;;10.09;100.00
20019;BME280;10170;42.502;26.526;2022-11-25T06:21:14;99499.31;;;10.31;100.00
20019;BME280;10170;42.502;26.526;2022-11-25T06:23:41;99511.88;;;10.75;100.00
20019;BME280;10170;42.502;26.526;2022-11-25T06:26:16;99515.03;;;10.33;100.00
20019;BME280;10170;42.502;26.526;2022-11-25T06:28:43;99509.47;;;10.47;100.00
20019;BME280;10170;42.502;26.526;2022-11-25T06:31:13;99504.75;;;10.56;100.00
20019;BME280;10170;42.502;26.526;2022-11-25T06:33:40;99513.94;;;10.60;100.00
20019;BME280;10170;42.502;26.526;2022-11-25T06:36:08;99519.00;;;10.81;100.00
20019;BME280;10170;42.502;26.526;2022-11-25T06:38:38;99516.63;;;11.11;100.00
20019;BME280;10170;42.502;26.526;2022-11-25T06:41:05;99528.97;;;11.74;100.00
20019;BME280;10170;42.502;26.526;2022-11-25T06:43:32;99532.94;;;11.65;100.00
20019;BME280;10170;42.502;26.526;2022-11-25T06:46:04;99532.97;;;11.14;100.00
20019;BME280;10170;42.502;26.526;2022-11-25T06:48:31;99527.09;;;11.06;100.00
20019;BME280;10170;42.502;26.526;2022-11-25T06:51:00;99540.59;;;11.04;100.00
20019;BME280;10170;42.502;26.526;2022-11-25T06:53:27;99536.03;;;10.54;100.00
20019;BME280;10170;42.502;26.526;2022-11-25T06:56:17;99547.47;;;10.68;100.00
20019;BME280;10170;42.502;26.526;2022-11-25T06:58:45;99554.69;;;10.41;100.00
20019;BME280;10170;42.502;26.526;2022-11-25T07:01:15;99550.41;;;10.33;100.00
20019;BME280;10170;42.502;26.526;2022-11-25T07:03:43;99552.25;;;10.13;100.00
20019;BME280;10170;42.502;26.526;2022-11-25T07:06:12;99565.72;;;9.99;100.00
20019;BME280;10170;42.502;26.526;2022-11-25T07:08:40;99559.41;;;10.13;100.00
20019;BME280;10170;42.502;26.526;2022-11-25T07:11:22;99572.66;;;10.06;100.00
20019;BME280;10170;42.502;26.526;2022-11-25T07:13:54;99584.31;;;10.05;100.00
20019;BME280;10170;42.502;26.526;2022-11-25T07:16:21;99570.22;;;9.98;100.00
20019;BME280;10170;42.502;26.526;2022-11-25T07:18:48;99573.69;;;9.92;100.00
20019;BME280;10170;42.502;26.526;2022-11-25T07:21:17;99567.13;;;9.88;100.00
20019;BME280;10170;42.502;26.526;2022-11-25T07:23:45;99588.41;;;9.95;100.00
20019;BME280;10170;42.502;26.526;2022-11-25T07:26:14;99590.66;;;9.98;100.00
20019;BME280;10170;42.502;26.526;2022-11-25T07:28:42;99573.88;;;9.91;100.00
20019;BME280;10170;42.502;26.526;2022-11-25T07:31:14;99600.84;;;10.01;100.00
20019;BME280;10170;42.502;26.526;2022-11-25T07:33:58;99607.25;;;10.19;100.00
20019;BME280;10170;42.502;26.526;2022-11-25T07:36:27;99615.41;;;10.24;100.00
20019;BME280;10170;42.502;26.526;2022-11-25T07:38:54;99616.66;;;10.09;100.00
20019;BME280;10170;42.502;26.526;2022-11-25T07:41:24;99607.44;;;10.11;100.00
20019;BME280;10170;42.502;26.526;2022-11-25T07:43:56;99626.06;;;10.18;100.00
20019;BME280;10170;42.502;26.526;2022-11-25T07:46:29;99630.34;;;10.32;100.00
20019;BME280;10170;42.502;26.526;2022-11-25T07:49:02;99626.44;;;10.28;100.00
20019;BME280;10170;42.502;26.526;2022-11-25T07:51:41;99632.41;;;10.43;100.00
20019;BME280;10170;42.502;26.526;2022-11-25T07:54:10;99630.94;;;10.47;100.00
20019;BME280;10170;42.502;26.526;2022-11-25T07:56:39;99623.78;;;10.47;100.00
20019;BME280;10170;42.502;26.526;2022-11-25T07:59:09;99635.06;;;10.43;100.00
20019;BME280;10170;42.502;26.526;2022-11-25T08:01:37;99645.25;;;10.46;100.00
20019;BME280;10170;42.502;26.526;2022-11-25T08:04:05;99659.19;;;10.61;100.00
20019;BME280;10170;42.502;26.526;2022-11-25T08:06:37;99644.44;;;10.58;100.00
20019;BME280;10170;42.502;26.526;2022-11-25T08:09:04;99648.13;;;10.51;100.00
20019;BME280;10170;42.502;26.526;2022-11-25T08:11:31;99652.19;;;10.73;100.00
20019;BME280;10170;42.502;26.526;2022-11-25T08:13:58;99668.16;;;10.67;100.00
20019;BME280;10170;42.502;26.526;2022-11-25T08:16:27;99659.97;;;10.75;100.00
20019;BME280;10170;42.502;26.526;2022-11-25T08:18:55;99671.41;;;10.95;100.00
20019;BME280;10170;42.502;26.526;2022-11-25T08:21:22;99664.25;;;10.95;100.00
20019;BME280;10170;42.502;26.526;2022-11-25T08:23:49;99671.34;;;11.08;100.00
20019;BME280;10170;42.502;26.526;2022-11-25T08:26:32;99675.25;;;11.18;100.00
20019;BME280;10170;42.502;26.526;2022-11-25T08:29:03;99671.72;;;11.31;100.00
20019;BME280;10170;42.502;26.526;2022-11-25T08:31:33;99679.31;;;11.27;100.00
20019;BME280;10170;42.502;26.526;2022-11-25T08:34:01;99683.81;;;11.27;100.00
20019;BME280;10170;42.502;26.526;2022-11-25T08:36:29;99641.91;;;11.09;100.00
20019;BME280;10170;42.502;26.526;2022-11-25T08:38:58;99688.50;;;11.38;100.00
20019;BME280;10170;42.502;26.526;2022-11-25T08:41:28;99670.50;;;11.27;100.00
20019;BME280;10170;42.502;26.526;2022-11-25T08:43:56;99683.41;;;11.17;100.00
20019;BME280;10170;42.502;26.526;2022-11-25T08:46:25;99694.66;;;11.19;100.00
20019;BME280;10170;42.502;26.526;2022-11-25T08:48:53;99688.03;;;11.47;100.00
20019;BME280;10170;42.502;26.526;2022-11-25T08:51:29;99690.88;;;11.59;100.00
20019;BME280;10170;42.502;26.526;2022-11-25T08:53:56;99683.72;;;11.53;100.00
20019;BME280;10170;42.502;26.526;2022-11-25T08:56:25;99687.00;;;11.99;100.00
20019;BME280;10170;42.502;26.526;2022-11-25T08:58:53;99692.03;;;12.94;100.00
20019;BME280;10170;42.502;26.526;2022-11-25T09:01:21;99687.19;;;13.09;98.85
20019;BME280;10170;42.502;26.526;2022-11-25T09:03:52;99689.59;;;13.17;94.35
20019;BME280;10170;42.502;26.526;2022-11-25T09:06:21;99675.03;;;13.13;88.73
20019;BME280;10170;42.502;26.526;2022-11-25T09:08:49;99687.50;;;13.19;85.69
20019;BME280;10170;42.502;26.526;2022-11-25T09:11:16;99687.19;;;13.09;89.24
20019;BME280;10170;42.502;26.526;2022-11-25T09:13:42;99699.34;;;13.23;87.44
20019;BME280;10170;42.502;26.526;2022-11-25T09:16:09;99698.47;;;13.29;88.41
20019;BME280;10170;42.502;26.526;2022-11-25T09:18:36;99672.00;;;13.64;90.68
20019;BME280;10170;42.502;26.526;2022-11-25T09:21:11;99698.63;;;13.70;86.65
20019;BME280;10170;42.502;26.526;2022-11-25T09:23:38;99687.97;;;13.82;83.48
20019;BME280;10170;42.502;26.526;2022-11-25T09:26:06;99693.66;;;14.04;78.48
20019;BME280;10170;42.502;26.526;2022-11-25T09:28:34;99693.16;;;13.95;81.08
20019;BME280;10170;42.502;26.526;2022-11-25T09:31:08;99692.88;;;14.15;78.88
20019;BME280;10170;42.502;26.526;2022-11-25T09:33:35;99682.75;;;14.05;79.28
20019;BME280;10170;42.502;26.526;2022-11-25T09:36:03;99663.72;;;13.84;81.17
20019;BME280;10170;42.502;26.526;2022-11-25T09:38:31;99691.66;;;14.29;77.32
20019;BME280;10170;42.502;26.526;2022-11-25T09:41:13;99684.53;;;14.64;76.48
20019;BME280;10170;42.502;26.526;2022-11-25T09:44:24;99693.13;;;14.54;76.15
20019;BME280;10170;42.502;26.526;2022-11-25T09:50:39;99690.97;;;14.98;70.05
20019;BME280;10170;42.502;26.526;2022-11-25T09:53:30;99681.66;;;14.89;71.77
20019;BME280;10170;42.502;26.526;2022-11-25T09:56:02;99675.00;;;14.56;71.00
20019;BME280;10170;42.502;26.526;2022-11-25T09:58:34;99695.97;;;14.94;70.55
20019;BME280;10170;42.502;26.526;2022-11-25T10:01:21;99703.59;;;14.56;70.04
20019;BME280;10170;42.502;26.526;2022-11-25T10:04:10;99687.81;;;13.95;72.34
20019;BME280;10170;42.502;26.526;2022-11-25T10:06:53;99703.13;;;14.18;72.14
20019;BME280;10170;42.502;26.526;2022-11-25T10:09:31;99691.59;;;14.35;73.03
20019;BME280;10170;42.502;26.526;2022-11-25T10:12:05;99712.34;;;14.51;72.56
20019;BME280;10170;42.502;26.526;2022-11-25T10:14:50;99698.28;;;14.67;70.21
20019;BME280;10170;42.502;26.526;2022-11-25T10:20:27;99713.41;;;13.73;74.48
20019;BME280;10170;42.502;26.526;2022-11-25T10:22:59;99706.97;;;13.92;75.54
20019;BME280;10170;42.502;26.526;2022-11-25T10:25:30;99688.09;;;13.21;75.89
20019;BME280;10170;42.502;26.526;2022-11-25T10:28:11;99709.25;;;12.73;80.26
20019;BME280;10170;42.502;26.526;2022-11-25T10:30:47;99714.09;;;12.58;82.19
20019;BME280;10170;42.502;26.526;2022-11-25T10:35:50;99708.81;;;12.52;85.54
20019;BME280;10170;42.502;26.526;2022-11-25T10:41:31;99725.63;;;13.44;79.75
20019;BME280;10170;42.502;26.526;2022-11-25T10:43:58;99714.56;;;13.77;76.22
20019;BME280;10170;42.502;26.526;2022-11-25T10:46:35;99719.03;;;13.83;74.49
20019;BME280;10170;42.502;26.526;2022-11-25T10:52:10;99713.69;;;13.47;75.27
20019;BME280;10170;42.502;26.526;2022-11-25T10:54:37;99717.41;;;13.28;77.23
20019;BME280;10170;42.502;26.526;2022-11-25T10:57:18;99714.16;;;13.44;77.28
20019;BME280;10170;42.502;26.526;2022-11-25T10:59:59;99707.56;;;13.94;74.23
20019;BME280;10170;42.502;26.526;2022-11-25T11:02:28;99728.25;;;14.46;73.49
20019;BME280;10170;42.502;26.526;2022-11-25T11:07:40;99720.75;;;15.01;69.07
20019;BME280;10170;42.502;26.526;2022-11-25T11:15:27;99721.31;;;13.98;73.85
20019;BME280;10170;42.502;26.526;2022-11-25T11:17:55;99718.06;;;14.07;72.21
20019;BME280;10170;42.502;26.526;2022-11-25T11:20:30;99721.09;;;13.81;71.82
20019;BME280;10170;42.502;26.526;2022-11-25T11:23:07;99716.50;;;14.47;70.60
20019;BME280;10170;42.502;26.526;2022-11-25T11:25:55;99727.09;;;14.54;68.52
20019;BME280;10170;42.502;26.526;2022-11-25T11:31:17;99724.97;;;15.09;67.82
20019;BME280;10170;42.502;26.526;2022-11-25T11:33:59;99723.19;;;14.68;69.20
20019;BME280;10170;42.502;26.526;2022-11-25T11:50:27;99729.69;;;14.01;67.93
20019;BME280;10170;42.502;26.526;2022-11-25T12:01:43;99744.53;;;13.97;71.57
20019;BME280;10170;42.502;26.526;2022-11-25T12:04:50;99740.25;;;13.96;69.58
20019;BME280;10170;42.502;26.526;2022-11-25T12:10:18;99730.06;;;14.34;69.89
20019;BME280;10170;42.502;26.526;2022-11-25T12:16:12;99757.81;;;14.51;67.88
20019;BME280;10170;42.502;26.526;2022-11-25T12:19:04;99751.94;;;14.13;67.16
20019;BME280;10170;42.502;26.526;2022-11-25T12:22:01;99751.28;;;14.47;66.22
20019;BME280;10170;42.502;26.526;2022-11-25T12:24:41;99749.53;;;13.94;67.83
20019;BME280;10170;42.502;26.526;2022-11-25T12:27:16;99756.31;;;13.60;69.59
20019;BME280;10170;42.502;26.526;2022-11-25T12:30:02;99749.53;;;13.94;69.68
20019;BME280;10170;42.502;26.526;2022-11-25T12:35:19;99753.50;;;13.73;70.81
20019;BME280;10170;42.502;26.526;2022-11-25T12:40:59;99761.44;;;14.27;67.03
20019;BME280;10170;42.502;26.526;2022-11-25T12:49:01;99762.16;;;13.08;71.67
20019;BME280;10170;42.502;26.526;2022-11-25T12:59:46;99769.53;;;12.81;76.66
20019;BME280;10170;42.502;26.526;2022-11-25T13:13:53;99759.28;;;12.22;81.33
20019;BME280;10170;42.502;26.526;2022-11-25T13:16:24;99749.81;;;11.82;87.04
20019;BME280;10170;42.502;26.526;2022-11-25T13:18:54;99775.22;;;11.78;87.25
20019;BME280;10170;42.502;26.526;2022-11-25T13:21:21;99777.28;;;11.76;87.14
20019;BME280;10170;42.502;26.526;2022-11-25T13:24:00;99771.16;;;11.62;91.15
20019;BME280;10170;42.502;26.526;2022-11-25T13:28:55;99770.16;;;11.70;89.45
20019;BME280;10170;42.502;26.526;2022-11-25T13:31:30;99778.53;;;11.67;88.67
20019;BME280;10170;42.502;26.526;2022-11-25T13:36:25;99781.88;;;11.30;92.73
20019;BME280;10170;42.502;26.526;2022-11-25T13:39:13;99791.91;;;11.41;93.65
20019;BME280;10170;42.502;26.526;2022-11-25T13:41:45;99796.19;;;11.48;93.46
20019;BME280;10170;42.502;26.526;2022-11-25T13:44:24;99802.13;;;11.50;92.48
20019;BME280;10170;42.502;26.526;2022-11-25T13:46:55;99799.66;;;11.42;95.14
20019;BME280;10170;42.502;26.526;2022-11-25T13:54:44;99808.28;;;11.44;95.23
20019;BME280;10170;42.502;26.526;2022-11-25T14:02:27;99816.06;;;11.26;100.00
20019;BME280;10170;42.502;26.526;2022-11-25T14:08:38;99824.47;;;10.84;100.00
20019;BME280;10170;42.502;26.526;2022-11-25T14:17:17;99835.91;;;10.78;100.00
20019;BME280;10170;42.502;26.526;2022-11-25T14:23:00;99845.50;;;10.66;100.00
20019;BME280;10170;42.502;26.526;2022-11-25T14:25:43;99848.59;;;10.70;100.00
20019;BME280;10170;42.502;26.526;2022-11-25T14:30:48;99850.63;;;10.61;100.00
20019;BME280;10170;42.502;26.526;2022-11-25T14:33:53;99844.06;;;10.63;100.00
20019;BME280;10170;42.502;26.526;2022-11-25T14:36:28;99851.66;;;10.73;100.00
20019;BME280;10170;42.502;26.526;2022-11-25T14:39:05;99853.44;;;10.59;100.00
20019;BME280;10170;42.502;26.526;2022-11-25T14:41:37;99859.19;;;10.56;100.00
20019;BME280;10170;42.502;26.526;2022-11-25T14:44:17;99847.97;;;10.61;100.00
20019;BME280;10170;42.502;26.526;2022-11-25T14:46:51;99848.34;;;10.58;100.00
20019;BME280;10170;42.502;26.526;2022-11-25T14:49:18;99861.63;;;10.45;100.00
20019;BME280;10170;42.502;26.526;2022-11-25T14:52:07;99845.97;;;10.22;100.00
20019;BME280;10170;42.502;26.526;2022-11-25T14:54:40;99868.47;;;10.26;100.00
20019;BME280;10170;42.502;26.526;2022-11-25T14:57:09;99861.56;;;10.32;100.00
20019;BME280;10170;42.502;26.526;2022-11-25T14:59:36;99869.75;;;10.30;100.00
20019;BME280;10170;42.502;26.526;2022-11-25T15:02:30;99869.75;;;10.37;100.00
20019;BME280;10170;42.502;26.526;2022-11-25T15:07:33;99866.66;;;10.33;100.00
20019;BME280;10170;42.502;26.526;2022-11-25T15:10:00;99848.63;;;10.22;100.00
20019;BME280;10170;42.502;26.526;2022-11-25T15:12:30;99861.28;;;10.20;100.00
20019;BME280;10170;42.502;26.526;2022-11-25T15:14:58;99867.00;;;10.17;100.00
20019;BME280;10170;42.502;26.526;2022-11-25T15:17:28;99861.06;;;10.15;100.00
20019;BME280;10170;42.502;26.526;2022-11-25T15:20:02;99871.78;;;10.28;100.00